Retie, Belgium
Current Conditions -  °F | °C
As of 2:09 PM on Thursday 27 Nov 2014 (Local Time) from EBBL Reporting Station
Light Rain Light Rain  
Wind Chill: 44°   Ceiling: 5000
Heat Index: 46°   Visibility: 2.3mi
Dew Point: 45°   Wind: 5mph
Humidity: 93%   Direction: 90°E
Pressure: 29.71"   Gusts: NA
Location:  51.27°N, 5.08°E
Report Text: EBBL 271309Z 09004KT 3700 -DZRA SCT030 BKN050 08/07 Q1006 GRN WHT TEMPO YLO
Loading
Personal Weather Stations






























Interactive Weather Map New forecast layout! Learn more

10-Day Weather Forecast

Advertisements
Track Severe Weather on mobile